CheckWX is a tool to help pilots better visualize weather data.  It is not intended as a substitute for an official pre-flight weather briefing.

19:55:08 UTC

SKRG TAF
Jose Maria Córdova International Airport
Rionegro, Colombia
TAF SKRG 251630Z 2518/2618 12010KT 9999 SCT017 SCT080 TEMPO 2519/2522 6000 DZRA SCT015 TEMPO 2600/2602 5000 TSRA SCT013CB BECMG 2602/2604 05004KT TEMPO 2608/2612 2000 BR DZ BKN007 TX23/2519Z TN13/2611Z

Jun-25@
18:00 UTC

Jun-25 @ 18:00 UTC

Jun-26@
02:00 UTC

Jun-26 @ 02:00 UTC

TAF SKRG 251630Z 2518/2618 12010KT 9999 SCT017 SCT080
Wind
  • 120° at 10 KTS
Cloud Levels
  • Scattered at 1,700' AGL
  • Scattered at 8,000' AGL

Jun-25@
19:00 UTC

Jun-25 @ 19:00 UTC

Jun-25@
22:00 UTC

Jun-25 @ 22:00 UTC

TEMPO 2519/2522 6000 DZRA SCT015

Temporary

Temporary Changes expected for less than half the time period

Conditions
Drizzle, Rain
Cloud Levels
  • Scattered at 1,500' AGL

Jun-26@
00:00 UTC

Jun-26 @ 00:00 UTC

Jun-26@
02:00 UTC

Jun-26 @ 02:00 UTC

TEMPO 2600/2602 5000 TSRA SCT013CB

Temporary

Temporary Changes expected for less than half the time period

Conditions
Thunderstorm, Rain
Cloud Levels
  • Scattered at 1,300' AGL

Jun-26@
02:00 UTC

Jun-26 @ 02:00 UTC

Jun-26@
18:00 UTC

Jun-26 @ 18:00 UTC

BECMG 2602/2604 05004KT

Becoming

Becoming Conditions expected by Wed, Jun 26, 2019 @ 04:00 UTC

Wind
  • 050° at 4 KTS
Cloud Levels
  • Scattered at 1,700' AGL
  • Scattered at 8,000' AGL

Jun-26@
08:00 UTC

Jun-26 @ 08:00 UTC

Jun-26@
12:00 UTC

Jun-26 @ 12:00 UTC

TEMPO 2608/2612 2000 BR DZ BKN007 TX23/2519Z TN13/2611Z

Temporary

Temporary Changes expected for less than half the time period

Conditions
Mist, Drizzle
Cloud Levels
  • Broken at 700' AGL